sensor_id;sensor_type;location;lat;lon;timestamp;P1;durP1;ratioP1;P2;durP2;ratioP2
32082;SDS011;18597;48.328;7.932;2022-08-30T00:00:08;10.07;;;9.17;;
32082;SDS011;18597;48.328;7.932;2022-08-30T00:03:01;10.40;;;9.33;;
32082;SDS011;18597;48.328;7.932;2022-08-30T00:05:28;9.70;;;8.80;;
32082;SDS011;18597;48.328;7.932;2022-08-30T00:07:55;11.20;;;10.30;;
32082;SDS011;18597;48.328;7.932;2022-08-30T00:10:21;10.10;;;9.20;;
32082;SDS011;18597;48.328;7.932;2022-08-30T00:12:48;11.00;;;8.70;;
32082;SDS011;18597;48.328;7.932;2022-08-30T00:15:14;12.57;;;9.20;;
32082;SDS011;18597;48.328;7.932;2022-08-30T00:17:42;9.63;;;8.73;;
32082;SDS011;18597;48.328;7.932;2022-08-30T00:20:10;10.00;;;9.13;;
32082;SDS011;18597;48.328;7.932;2022-08-30T00:22:42;9.47;;;8.50;;
32082;SDS011;18597;48.328;7.932;2022-08-30T00:25:08;10.83;;;8.30;;
32082;SDS011;18597;48.328;7.932;2022-08-30T00:27:36;10.93;;;9.50;;
32082;SDS011;18597;48.328;7.932;2022-08-30T00:30:03;10.50;;;9.60;;
32082;SDS011;18597;48.328;7.932;2022-08-30T00:32:30;9.03;;;8.20;;
32082;SDS011;18597;48.328;7.932;2022-08-30T00:34:56;10.23;;;9.00;;
32082;SDS011;18597;48.328;7.932;2022-08-30T00:37:22;10.20;;;9.30;;
32082;SDS011;18597;48.328;7.932;2022-08-30T00:39:48;10.83;;;9.73;;
32082;SDS011;18597;48.328;7.932;2022-08-30T00:42:15;11.13;;;10.13;;
32082;SDS011;18597;48.328;7.932;2022-08-30T00:44:43;10.33;;;9.23;;
32082;SDS011;18597;48.328;7.932;2022-08-30T00:47:09;9.47;;;8.70;;
32082;SDS011;18597;48.328;7.932;2022-08-30T00:49:36;10.73;;;9.70;;
32082;SDS011;18597;48.328;7.932;2022-08-30T00:52:06;10.73;;;9.53;;
32082;SDS011;18597;48.328;7.932;2022-08-30T00:54:33;16.47;;;10.50;;
32082;SDS011;18597;48.328;7.932;2022-08-30T00:57:01;10.63;;;9.80;;
32082;SDS011;18597;48.328;7.932;2022-08-30T00:59:28;11.37;;;10.30;;
32082;SDS011;18597;48.328;7.932;2022-08-30T01:01:55;12.63;;;10.23;;
32082;SDS011;18597;48.328;7.932;2022-08-30T01:04:22;12.20;;;10.90;;
32082;SDS011;18597;48.328;7.932;2022-08-30T01:06:50;11.10;;;10.20;;
32082;SDS011;18597;48.328;7.932;2022-08-30T01:09:17;11.23;;;10.20;;
32082;SDS011;18597;48.328;7.932;2022-08-30T01:11:44;11.90;;;10.80;;
32082;SDS011;18597;48.328;7.932;2022-08-30T01:14:11;18.33;;;13.63;;
32082;SDS011;18597;48.328;7.932;2022-08-30T01:16:39;12.00;;;10.77;;
32082;SDS011;18597;48.328;7.932;2022-08-30T01:19:10;10.57;;;9.57;;
32082;SDS011;18597;48.328;7.932;2022-08-30T01:22:17;11.70;;;10.67;;
32082;SDS011;18597;48.328;7.932;2022-08-30T01:24:59;14.03;;;11.93;;
32082;SDS011;18597;48.328;7.932;2022-08-30T01:27:27;16.00;;;12.63;;
32082;SDS011;18597;48.328;7.932;2022-08-30T01:29:53;14.13;;;11.70;;
32082;SDS011;18597;48.328;7.932;2022-08-30T01:32:22;10.50;;;9.70;;
32082;SDS011;18597;48.328;7.932;2022-08-30T01:34:50;11.83;;;10.63;;
32082;SDS011;18597;48.328;7.932;2022-08-30T01:37:19;12.00;;;10.70;;
32082;SDS011;18597;48.328;7.932;2022-08-30T01:39:51;11.43;;;10.40;;
32082;SDS011;18597;48.328;7.932;2022-08-30T01:42:18;11.60;;;10.57;;
32082;SDS011;18597;48.328;7.932;2022-08-30T01:44:44;15.33;;;12.13;;
32082;SDS011;18597;48.328;7.932;2022-08-30T01:47:11;12.53;;;10.73;;
32082;SDS011;18597;48.328;7.932;2022-08-30T01:49:37;12.13;;;10.93;;
32082;SDS011;18597;48.328;7.932;2022-08-30T01:52:05;11.67;;;10.57;;
32082;SDS011;18597;48.328;7.932;2022-08-30T01:54:32;11.53;;;10.33;;
32082;SDS011;18597;48.328;7.932;2022-08-30T01:57:01;12.40;;;11.20;;
32082;SDS011;18597;48.328;7.932;2022-08-30T01:59:28;11.90;;;10.80;;
32082;SDS011;18597;48.328;7.932;2022-08-30T02:01:54;14.03;;;12.60;;
32082;SDS011;18597;48.328;7.932;2022-08-30T02:04:20;12.63;;;11.37;;
32082;SDS011;18597;48.328;7.932;2022-08-30T02:06:46;12.10;;;10.97;;
32082;SDS011;18597;48.328;7.932;2022-08-30T02:09:13;13.07;;;11.97;;
32082;SDS011;18597;48.328;7.932;2022-08-30T02:11:39;13.10;;;11.50;;
32082;SDS011;18597;48.328;7.932;2022-08-30T02:14:05;12.80;;;11.60;;
32082;SDS011;18597;48.328;7.932;2022-08-30T02:16:31;15.67;;;12.40;;
32082;SDS011;18597;48.328;7.932;2022-08-30T02:18:57;12.60;;;11.17;;
32082;SDS011;18597;48.328;7.932;2022-08-30T02:21:24;16.33;;;12.10;;
32082;SDS011;18597;48.328;7.932;2022-08-30T02:23:51;12.53;;;11.00;;
32082;SDS011;18597;48.328;7.932;2022-08-30T02:26:18;15.43;;;11.43;;
32082;SDS011;18597;48.328;7.932;2022-08-30T02:28:45;14.50;;;11.67;;
32082;SDS011;18597;48.328;7.932;2022-08-30T02:31:12;15.53;;;12.77;;
32082;SDS011;18597;48.328;7.932;2022-08-30T02:33:38;12.93;;;11.70;;
32082;SDS011;18597;48.328;7.932;2022-08-30T02:36:04;14.47;;;12.97;;
32082;SDS011;18597;48.328;7.932;2022-08-30T02:38:31;13.00;;;11.40;;
32082;SDS011;18597;48.328;7.932;2022-08-30T02:40:58;18.20;;;11.50;;
32082;SDS011;18597;48.328;7.932;2022-08-30T02:43:24;13.07;;;11.50;;
32082;SDS011;18597;48.328;7.932;2022-08-30T02:45:50;12.67;;;11.50;;
32082;SDS011;18597;48.328;7.932;2022-08-30T02:48:17;13.10;;;11.37;;
32082;SDS011;18597;48.328;7.932;2022-08-30T02:50:46;18.27;;;12.33;;
32082;SDS011;18597;48.328;7.932;2022-08-30T02:53:15;15.37;;;12.33;;
32082;SDS011;18597;48.328;7.932;2022-08-30T02:55:42;12.50;;;11.47;;
32082;SDS011;18597;48.328;7.932;2022-08-30T02:58:09;13.40;;;11.80;;
32082;SDS011;18597;48.328;7.932;2022-08-30T03:00:35;12.37;;;11.17;;
32082;SDS011;18597;48.328;7.932;2022-08-30T03:03:02;12.90;;;11.47;;
32082;SDS011;18597;48.328;7.932;2022-08-30T03:05:29;17.60;;;14.20;;
32082;SDS011;18597;48.328;7.932;2022-08-30T03:07:57;13.60;;;12.33;;
32082;SDS011;18597;48.328;7.932;2022-08-30T03:10:24;13.77;;;12.00;;
32082;SDS011;18597;48.328;7.932;2022-08-30T03:12:52;13.67;;;12.37;;
32082;SDS011;18597;48.328;7.932;2022-08-30T03:15:19;12.30;;;11.07;;
32082;SDS011;18597;48.328;7.932;2022-08-30T03:17:49;14.33;;;12.60;;
32082;SDS011;18597;48.328;7.932;2022-08-30T03:20:17;20.70;;;13.63;;
32082;SDS011;18597;48.328;7.932;2022-08-30T03:22:45;12.97;;;11.57;;
32082;SDS011;18597;48.328;7.932;2022-08-30T03:25:12;16.87;;;12.00;;
32082;SDS011;18597;48.328;7.932;2022-08-30T03:27:38;15.07;;;13.47;;
32082;SDS011;18597;48.328;7.932;2022-08-30T03:30:05;14.30;;;13.00;;
32082;SDS011;18597;48.328;7.932;2022-08-30T03:32:32;14.00;;;12.17;;
32082;SDS011;18597;48.328;7.932;2022-08-30T03:34:58;14.57;;;12.60;;
32082;SDS011;18597;48.328;7.932;2022-08-30T03:37:25;14.83;;;13.33;;
32082;SDS011;18597;48.328;7.932;2022-08-30T03:39:52;20.80;;;12.70;;
32082;SDS011;18597;48.328;7.932;2022-08-30T03:42:19;14.43;;;13.03;;
32082;SDS011;18597;48.328;7.932;2022-08-30T03:44:45;14.70;;;13.30;;
32082;SDS011;18597;48.328;7.932;2022-08-30T03:47:11;15.90;;;12.67;;
32082;SDS011;18597;48.328;7.932;2022-08-30T03:49:37;12.77;;;11.57;;
32082;SDS011;18597;48.328;7.932;2022-08-30T03:52:03;14.13;;;12.63;;
32082;SDS011;18597;48.328;7.932;2022-08-30T03:54:29;16.13;;;14.43;;
32082;SDS011;18597;48.328;7.932;2022-08-30T03:56:56;15.03;;;13.63;;
32082;SDS011;18597;48.328;7.932;2022-08-30T03:59:22;18.00;;;14.53;;
32082;SDS011;18597;48.328;7.932;2022-08-30T04:01:49;18.60;;;15.70;;
32082;SDS011;18597;48.328;7.932;2022-08-30T04:04:15;15.73;;;14.23;;
32082;SDS011;18597;48.328;7.932;2022-08-30T04:06:41;29.77;;;15.40;;
32082;SDS011;18597;48.328;7.932;2022-08-30T04:09:07;18.27;;;13.63;;
32082;SDS011;18597;48.328;7.932;2022-08-30T04:11:34;16.70;;;13.97;;
32082;SDS011;18597;48.328;7.932;2022-08-30T04:14:00;18.87;;;14.70;;
32082;SDS011;18597;48.328;7.932;2022-08-30T04:16:25;14.77;;;13.37;;
32082;SDS011;18597;48.328;7.932;2022-08-30T04:18:52;17.80;;;14.23;;
32082;SDS011;18597;48.328;7.932;2022-08-30T04:21:18;16.00;;;14.13;;
32082;SDS011;18597;48.328;7.932;2022-08-30T04:23:44;17.40;;;15.60;;
32082;SDS011;18597;48.328;7.932;2022-08-30T04:26:11;16.40;;;14.37;;
32082;SDS011;18597;48.328;7.932;2022-08-30T04:28:37;19.40;;;15.53;;
32082;SDS011;18597;48.328;7.932;2022-08-30T04:31:07;24.93;;;17.17;;
32082;SDS011;18597;48.328;7.932;2022-08-30T04:33:36;23.27;;;17.20;;
32082;SDS011;18597;48.328;7.932;2022-08-30T04:36:03;16.70;;;14.93;;
32082;SDS011;18597;48.328;7.932;2022-08-30T04:38:30;16.10;;;14.17;;
32082;SDS011;18597;48.328;7.932;2022-08-30T04:40:57;19.73;;;13.10;;
32082;SDS011;18597;48.328;7.932;2022-08-30T04:43:23;18.63;;;15.00;;
32082;SDS011;18597;48.328;7.932;2022-08-30T04:45:50;21.50;;;15.20;;
32082;SDS011;18597;48.328;7.932;2022-08-30T04:48:18;22.23;;;17.67;;
32082;SDS011;18597;48.328;7.932;2022-08-30T04:50:46;17.80;;;14.77;;
32082;SDS011;18597;48.328;7.932;2022-08-30T04:53:13;15.20;;;13.77;;
32082;SDS011;18597;48.328;7.932;2022-08-30T04:55:40;26.97;;;15.30;;
32082;SDS011;18597;48.328;7.932;2022-08-30T04:58:08;16.63;;;14.83;;
32082;SDS011;18597;48.328;7.932;2022-08-30T05:00:35;14.20;;;12.80;;
32082;SDS011;18597;48.328;7.932;2022-08-30T05:03:01;26.83;;;15.20;;
32082;SDS011;18597;48.328;7.932;2022-08-30T05:05:28;16.40;;;14.67;;
32082;SDS011;18597;48.328;7.932;2022-08-30T05:08:12;24.40;;;15.53;;
32082;SDS011;18597;48.328;7.932;2022-08-30T05:10:42;16.40;;;14.80;;
32082;SDS011;18597;48.328;7.932;2022-08-30T05:13:13;37.93;;;29.50;;
32082;SDS011;18597;48.328;7.932;2022-08-30T05:15:41;20.43;;;15.23;;
32082;SDS011;18597;48.328;7.932;2022-08-30T05:18:08;25.20;;;21.30;;
32082;SDS011;18597;48.328;7.932;2022-08-30T05:20:36;17.37;;;15.67;;
32082;SDS011;18597;48.328;7.932;2022-08-30T05:23:03;18.80;;;14.80;;
32082;SDS011;18597;48.328;7.932;2022-08-30T05:25:31;22.30;;;15.97;;
32082;SDS011;18597;48.328;7.932;2022-08-30T05:28:01;21.50;;;12.60;;
32082;SDS011;18597;48.328;7.932;2022-08-30T05:30:29;16.40;;;14.47;;
32082;SDS011;18597;48.328;7.932;2022-08-30T05:32:58;20.33;;;16.27;;
32082;SDS011;18597;48.328;7.932;2022-08-30T05:35:24;14.33;;;12.93;;
32082;SDS011;18597;48.328;7.932;2022-08-30T05:37:50;14.97;;;12.47;;
32082;SDS011;18597;48.328;7.932;2022-08-30T05:40:17;14.50;;;13.00;;
32082;SDS011;18597;48.328;7.932;2022-08-30T05:42:43;14.27;;;12.63;;
32082;SDS011;18597;48.328;7.932;2022-08-30T05:45:11;19.17;;;12.50;;
32082;SDS011;18597;48.328;7.932;2022-08-30T05:47:38;13.73;;;12.00;;
32082;SDS011;18597;48.328;7.932;2022-08-30T05:50:05;13.33;;;10.90;;
32082;SDS011;18597;48.328;7.932;2022-08-30T05:52:34;12.90;;;11.67;;
32082;SDS011;18597;48.328;7.932;2022-08-30T05:55:02;13.30;;;12.03;;
32082;SDS011;18597;48.328;7.932;2022-08-30T05:57:31;14.23;;;12.73;;
32082;SDS011;18597;48.328;7.932;2022-08-30T06:00:00;14.77;;;11.10;;
32082;SDS011;18597;48.328;7.932;2022-08-30T06:02:28;13.87;;;12.40;;
32082;SDS011;18597;48.328;7.932;2022-08-30T06:04:54;12.97;;;10.80;;
32082;SDS011;18597;48.328;7.932;2022-08-30T06:07:20;11.67;;;9.83;;
32082;SDS011;18597;48.328;7.932;2022-08-30T06:09:46;10.90;;;9.77;;
32082;SDS011;18597;48.328;7.932;2022-08-30T06:12:12;11.13;;;10.07;;
32082;SDS011;18597;48.328;7.932;2022-08-30T06:14:38;10.13;;;8.97;;
32082;SDS011;18597;48.328;7.932;2022-08-30T06:17:04;10.13;;;7.50;;
32082;SDS011;18597;48.328;7.932;2022-08-30T06:19:30;7.53;;;6.90;;
32082;SDS011;18597;48.328;7.932;2022-08-30T06:21:56;9.40;;;7.20;;
32082;SDS011;18597;48.328;7.932;2022-08-30T06:24:22;8.83;;;8.03;;
32082;SDS011;18597;48.328;7.932;2022-08-30T06:26:48;7.00;;;6.50;;
32082;SDS011;18597;48.328;7.932;2022-08-30T06:29:15;7.57;;;7.07;;
32082;SDS011;18597;48.328;7.932;2022-08-30T06:31:44;9.37;;;7.40;;
32082;SDS011;18597;48.328;7.932;2022-08-30T06:34:11;7.63;;;6.87;;
32082;SDS011;18597;48.328;7.932;2022-08-30T06:36:37;7.47;;;6.47;;
32082;SDS011;18597;48.328;7.932;2022-08-30T06:39:04;6.47;;;6.07;;
32082;SDS011;18597;48.328;7.932;2022-08-30T06:41:32;5.60;;;5.40;;
32082;SDS011;18597;48.328;7.932;2022-08-30T06:44:03;5.77;;;5.30;;
32082;SDS011;18597;48.328;7.932;2022-08-30T06:46:31;6.53;;;5.80;;
32082;SDS011;18597;48.328;7.932;2022-08-30T06:49:00;5.73;;;5.40;;
32082;SDS011;18597;48.328;7.932;2022-08-30T06:51:28;8.83;;;6.00;;
32082;SDS011;18597;48.328;7.932;2022-08-30T06:53:58;6.63;;;6.13;;
32082;SDS011;18597;48.328;7.932;2022-08-30T06:56:25;5.93;;;5.53;;
32082;SDS011;18597;48.328;7.932;2022-08-30T06:58:51;10.43;;;6.30;;
32082;SDS011;18597;48.328;7.932;2022-08-30T07:01:19;8.70;;;5.60;;
32082;SDS011;18597;48.328;7.932;2022-08-30T07:03:48;5.28;;;4.97;;
32082;SDS011;18597;48.328;7.932;2022-08-30T07:06:15;8.65;;;5.63;;
32082;SDS011;18597;48.328;7.932;2022-08-30T07:08:42;5.15;;;4.78;;
32082;SDS011;18597;48.328;7.932;2022-08-30T07:11:09;6.45;;;6.00;;
32082;SDS011;18597;48.328;7.932;2022-08-30T07:13:35;5.55;;;5.15;;
32082;SDS011;18597;48.328;7.932;2022-08-30T07:16:17;6.28;;;5.78;;
32082;SDS011;18597;48.328;7.932;2022-08-30T07:18:43;5.95;;;5.35;;
32082;SDS011;18597;48.328;7.932;2022-08-30T07:21:19;5.97;;;5.68;;
32082;SDS011;18597;48.328;7.932;2022-08-30T07:23:51;7.85;;;4.68;;
32082;SDS011;18597;48.328;7.932;2022-08-30T07:26:21;5.25;;;4.85;;
32082;SDS011;18597;48.328;7.932;2022-08-30T07:28:52;4.88;;;4.57;;
32082;SDS011;18597;48.328;7.932;2022-08-30T07:31:18;4.97;;;4.78;;
32082;SDS011;18597;48.328;7.932;2022-08-30T07:33:45;5.15;;;4.85;;
32082;SDS011;18597;48.328;7.932;2022-08-30T07:36:12;5.85;;;5.47;;
32082;SDS011;18597;48.328;7.932;2022-08-30T07:38:41;4.47;;;4.18;;
32082;SDS011;18597;48.328;7.932;2022-08-30T07:41:08;5.18;;;4.88;;
32082;SDS011;18597;48.328;7.932;2022-08-30T07:43:34;4.97;;;4.53;;
32082;SDS011;18597;48.328;7.932;2022-08-30T07:46:02;5.72;;;5.20;;
32082;SDS011;18597;48.328;7.932;2022-08-30T07:48:32;4.85;;;4.47;;
32082;SDS011;18597;48.328;7.932;2022-08-30T07:50:59;5.38;;;4.80;;
32082;SDS011;18597;48.328;7.932;2022-08-30T07:53:26;5.28;;;4.35;;
32082;SDS011;18597;48.328;7.932;2022-08-30T07:55:52;4.22;;;4.07;;
32082;SDS011;18597;48.328;7.932;2022-08-30T07:58:18;6.85;;;4.28;;
32082;SDS011;18597;48.328;7.932;2022-08-30T08:00:44;4.35;;;4.15;;
32082;SDS011;18597;48.328;7.932;2022-08-30T08:03:10;4.28;;;3.92;;
32082;SDS011;18597;48.328;7.932;2022-08-30T08:05:38;4.22;;;4.03;;
32082;SDS011;18597;48.328;7.932;2022-08-30T08:08:07;4.88;;;4.55;;
32082;SDS011;18597;48.328;7.932;2022-08-30T08:10:36;4.07;;;3.92;;
32082;SDS011;18597;48.328;7.932;2022-08-30T08:13:03;3.72;;;3.53;;
32082;SDS011;18597;48.328;7.932;2022-08-30T08:15:30;3.78;;;3.58;;
32082;SDS011;18597;48.328;7.932;2022-08-30T08:17:56;3.75;;;3.42;;
32082;SDS011;18597;48.328;7.932;2022-08-30T08:20:22;3.15;;;2.97;;
32082;SDS011;18597;48.328;7.932;2022-08-30T08:22:50;14.90;;;4.20;;
32082;SDS011;18597;48.328;7.932;2022-08-30T08:25:16;3.42;;;3.33;;
32082;SDS011;18597;48.328;7.932;2022-08-30T08:27:45;3.42;;;3.30;;
32082;SDS011;18597;48.328;7.932;2022-08-30T08:30:14;3.50;;;3.30;;
32082;SDS011;18597;48.328;7.932;2022-08-30T08:32:42;3.08;;;2.97;;
32082;SDS011;18597;48.328;7.932;2022-08-30T08:35:09;4.43;;;3.25;;
32082;SDS011;18597;48.328;7.932;2022-08-30T08:37:35;4.22;;;3.92;;
32082;SDS011;18597;48.328;7.932;2022-08-30T08:40:04;5.55;;;4.40;;
32082;SDS011;18597;48.328;7.932;2022-08-30T08:42:50;4.03;;;3.92;;
32082;SDS011;18597;48.328;7.932;2022-08-30T08:45:34;4.70;;;4.45;;
32082;SDS011;18597;48.328;7.932;2022-08-30T08:48:32;6.18;;;5.38;;
32082;SDS011;18597;48.328;7.932;2022-08-30T08:51:11;5.23;;;4.87;;
32082;SDS011;18597;48.328;7.932;2022-08-30T08:54:03;6.10;;;5.30;;
32082;SDS011;18597;48.328;7.932;2022-08-30T08:56:34;5.93;;;5.40;;
32082;SDS011;18597;48.328;7.932;2022-08-30T08:59:02;5.80;;;5.60;;
32082;SDS011;18597;48.328;7.932;2022-08-30T09:01:32;7.40;;;5.80;;
32082;SDS011;18597;48.328;7.932;2022-08-30T09:04:01;6.90;;;6.30;;
32082;SDS011;18597;48.328;7.932;2022-08-30T09:09:31;7.30;;;6.70;;
32082;SDS011;18597;48.328;7.932;2022-08-30T09:12:01;9.73;;;8.73;;
32082;SDS011;18597;48.328;7.932;2022-08-30T09:14:30;8.23;;;6.50;;
32082;SDS011;18597;48.328;7.932;2022-08-30T09:17:04;6.87;;;6.50;;
32082;SDS011;18597;48.328;7.932;2022-08-30T09:20:04;6.37;;;5.97;;
32082;SDS011;18597;48.328;7.932;2022-08-30T09:22:24;6.30;;;5.77;;
32082;SDS011;18597;48.328;7.932;2022-08-30T09:27:48;7.13;;;6.50;;
32082;SDS011;18597;48.328;7.932;2022-08-30T09:30:19;7.83;;;5.73;;
32082;SDS011;18597;48.328;7.932;2022-08-30T09:33:06;7.30;;;6.73;;
32082;SDS011;18597;48.328;7.932;2022-08-30T09:35:45;7.03;;;6.53;;
32082;SDS011;18597;48.328;7.932;2022-08-30T09:38:16;5.90;;;5.40;;
32082;SDS011;18597;48.328;7.932;2022-08-30T09:40:56;11.60;;;6.00;;
32082;SDS011;18597;48.328;7.932;2022-08-30T09:43:26;5.53;;;5.30;;
32082;SDS011;18597;48.328;7.932;2022-08-30T09:48:36;5.60;;;5.30;;
32082;SDS011;18597;48.328;7.932;2022-08-30T09:54:24;6.03;;;5.43;;
32082;SDS011;18597;48.328;7.932;2022-08-30T09:57:06;6.53;;;6.03;;
32082;SDS011;18597;48.328;7.932;2022-08-30T10:02:58;6.07;;;5.60;;
32082;SDS011;18597;48.328;7.932;2022-08-30T10:09:05;5.93;;;5.63;;
32082;SDS011;18597;48.328;7.932;2022-08-30T10:11:53;5.53;;;5.10;;
32082;SDS011;18597;48.328;7.932;2022-08-30T10:15:02;5.37;;;5.00;;
32082;SDS011;18597;48.328;7.932;2022-08-30T10:21:06;13.53;;;6.30;;
32082;SDS011;18597;48.328;7.932;2022-08-30T10:23:56;9.97;;;5.60;;
32082;SDS011;18597;48.328;7.932;2022-08-30T10:26:36;5.97;;;5.20;;
32082;SDS011;18597;48.328;7.932;2022-08-30T10:29:52;6.23;;;5.73;;
32082;SDS011;18597;48.328;7.932;2022-08-30T10:32:16;6.27;;;5.77;;
32082;SDS011;18597;48.328;7.932;2022-08-30T10:34:58;6.80;;;5.10;;
32082;SDS011;18597;48.328;7.932;2022-08-30T10:37:37;5.00;;;4.47;;
32082;SDS011;18597;48.328;7.932;2022-08-30T10:40:12;5.17;;;4.87;;
32082;SDS011;18597;48.328;7.932;2022-08-30T10:46:25;4.33;;;4.07;;
32082;SDS011;18597;48.328;7.932;2022-08-30T10:49:18;4.40;;;4.23;;
32082;SDS011;18597;48.328;7.932;2022-08-30T10:51:51;4.87;;;4.57;;
32082;SDS011;18597;48.328;7.932;2022-08-30T10:54:49;4.87;;;4.57;;
32082;SDS011;18597;48.328;7.932;2022-08-30T10:57:40;4.93;;;4.53;;
32082;SDS011;18597;48.328;7.932;2022-08-30T11:00:07;4.70;;;4.30;;
32082;SDS011;18597;48.328;7.932;2022-08-30T11:12:49;3.90;;;3.80;;
32082;SDS011;18597;48.328;7.932;2022-08-30T11:15:16;5.00;;;4.70;;
32082;SDS011;18597;48.328;7.932;2022-08-30T11:18:09;5.60;;;4.80;;
32082;SDS011;18597;48.328;7.932;2022-08-30T11:20:46;4.60;;;4.40;;
32082;SDS011;18597;48.328;7.932;2022-08-30T11:23:19;6.97;;;5.57;;
32082;SDS011;18597;48.328;7.932;2022-08-30T11:26:07;10.30;;;5.60;;
32082;SDS011;18597;48.328;7.932;2022-08-30T11:31:28;5.20;;;4.80;;
32082;SDS011;18597;48.328;7.932;2022-08-30T11:34:01;41.63;;;37.17;;
32082;SDS011;18597;48.328;7.932;2022-08-30T11:39:05;8.57;;;6.87;;
32082;SDS011;18597;48.328;7.932;2022-08-30T11:41:38;8.23;;;7.53;;
32082;SDS011;18597;48.328;7.932;2022-08-30T11:46:58;10.53;;;6.93;;
32082;SDS011;18597;48.328;7.932;2022-08-30T11:49:34;5.60;;;5.17;;
32082;SDS011;18597;48.328;7.932;2022-08-30T11:52:19;6.17;;;5.57;;
32082;SDS011;18597;48.328;7.932;2022-08-30T12:00:27;4.43;;;4.23;;
32082;SDS011;18597;48.328;7.932;2022-08-30T12:02:59;4.87;;;4.57;;
32082;SDS011;18597;48.328;7.932;2022-08-30T12:05:54;5.83;;;5.27;;
32082;SDS011;18597;48.328;7.932;2022-08-30T12:16:21;6.60;;;5.40;;
32082;SDS011;18597;48.328;7.932;2022-08-30T12:19:29;4.73;;;4.30;;
32082;SDS011;18597;48.328;7.932;2022-08-30T12:21:58;6.70;;;5.20;;
32082;SDS011;18597;48.328;7.932;2022-08-30T12:24:32;6.77;;;5.17;;
32082;SDS011;18597;48.328;7.932;2022-08-30T12:27:34;8.40;;;4.23;;
32082;SDS011;18597;48.328;7.932;2022-08-30T12:29:56;7.53;;;6.93;;
32082;SDS011;18597;48.328;7.932;2022-08-30T12:32:25;4.80;;;4.50;;
32082;SDS011;18597;48.328;7.932;2022-08-30T12:34:54;9.23;;;4.90;;
32082;SDS011;18597;48.328;7.932;2022-08-30T12:37:28;6.00;;;4.67;;
32082;SDS011;18597;48.328;7.932;2022-08-30T12:40:28;6.97;;;6.27;;
32082;SDS011;18597;48.328;7.932;2022-08-30T12:42:48;7.23;;;6.60;;
32082;SDS011;18597;48.328;7.932;2022-08-30T12:45:20;3.80;;;3.60;;
32082;SDS011;18597;48.328;7.932;2022-08-30T12:47:55;5.33;;;4.90;;
32082;SDS011;18597;48.328;7.932;2022-08-30T12:50:29;11.37;;;10.43;;
32082;SDS011;18597;48.328;7.932;2022-08-30T12:53:09;4.17;;;3.70;;
32082;SDS011;18597;48.328;7.932;2022-08-30T12:55:54;5.53;;;5.00;;
32082;SDS011;18597;48.328;7.932;2022-08-30T12:58:58;5.30;;;4.80;;
32082;SDS011;18597;48.328;7.932;2022-08-30T13:06:37;4.60;;;4.30;;
32082;SDS011;18597;48.328;7.932;2022-08-30T13:09:31;4.70;;;4.40;;
32082;SDS011;18597;48.328;7.932;2022-08-30T13:12:04;6.43;;;4.53;;
32082;SDS011;18597;48.328;7.932;2022-08-30T13:14:44;7.17;;;4.73;;
32082;SDS011;18597;48.328;7.932;2022-08-30T13:19:58;4.63;;;4.40;;
32082;SDS011;18597;48.328;7.932;2022-08-30T13:23:37;6.77;;;5.00;;
32082;SDS011;18597;48.328;7.932;2022-08-30T13:25:33;4.97;;;4.67;;
32082;SDS011;18597;48.328;7.932;2022-08-30T13:28:03;4.93;;;4.73;;
32082;SDS011;18597;48.328;7.932;2022-08-30T13:30:31;4.40;;;4.20;;
32082;SDS011;18597;48.328;7.932;2022-08-30T13:32:58;6.10;;;5.60;;
32082;SDS011;18597;48.328;7.932;2022-08-30T13:35:25;8.63;;;4.93;;
32082;SDS011;18597;48.328;7.932;2022-08-30T13:37:54;7.03;;;5.57;;
32082;SDS011;18597;48.328;7.932;2022-08-30T13:40:21;4.47;;;4.37;;
32082;SDS011;18597;48.328;7.932;2022-08-30T13:42:47;4.50;;;4.40;;
32082;SDS011;18597;48.328;7.932;2022-08-30T13:45:14;4.33;;;4.13;;
32082;SDS011;18597;48.328;7.932;2022-08-30T13:47:41;4.80;;;4.60;;
32082;SDS011;18597;48.328;7.932;2022-08-30T13:50:10;5.33;;;5.03;;
32082;SDS011;18597;48.328;7.932;2022-08-30T13:52:37;5.67;;;5.23;;
32082;SDS011;18597;48.328;7.932;2022-08-30T13:55:03;5.70;;;5.23;;
32082;SDS011;18597;48.328;7.932;2022-08-30T13:57:30;5.03;;;4.73;;
32082;SDS011;18597;48.328;7.932;2022-08-30T13:59:56;5.17;;;4.93;;
32082;SDS011;18597;48.328;7.932;2022-08-30T14:02:22;5.30;;;4.80;;
32082;SDS011;18597;48.328;7.932;2022-08-30T14:04:48;4.97;;;4.77;;
32082;SDS011;18597;48.328;7.932;2022-08-30T14:07:14;4.60;;;4.33;;
32082;SDS011;18597;48.328;7.932;2022-08-30T14:09:40;5.40;;;4.90;;
32082;SDS011;18597;48.328;7.932;2022-08-30T14:12:06;4.10;;;3.90;;
32082;SDS011;18597;48.328;7.932;2022-08-30T14:14:33;6.30;;;5.70;;
32082;SDS011;18597;48.328;7.932;2022-08-30T14:16:58;10.93;;;10.00;;
32082;SDS011;18597;48.328;7.932;2022-08-30T14:19:24;5.00;;;4.80;;
32082;SDS011;18597;48.328;7.932;2022-08-30T14:21:50;4.87;;;4.60;;
32082;SDS011;18597;48.328;7.932;2022-08-30T14:24:16;5.80;;;5.50;;
32082;SDS011;18597;48.328;7.932;2022-08-30T14:26:45;4.90;;;4.37;;
32082;SDS011;18597;48.328;7.932;2022-08-30T14:29:16;6.07;;;5.67;;
32082;SDS011;18597;48.328;7.932;2022-08-30T14:31:47;4.40;;;4.30;;
32082;SDS011;18597;48.328;7.932;2022-08-30T14:34:13;5.07;;;4.57;;
32082;SDS011;18597;48.328;7.932;2022-08-30T14:36:43;4.90;;;4.70;;
32082;SDS011;18597;48.328;7.932;2022-08-30T14:39:12;4.80;;;4.60;;
32082;SDS011;18597;48.328;7.932;2022-08-30T14:41:46;4.63;;;4.30;;
32082;SDS011;18597;48.328;7.932;2022-08-30T14:44:16;5.03;;;4.90;;
32082;SDS011;18597;48.328;7.932;2022-08-30T14:46:45;4.60;;;4.37;;
32082;SDS011;18597;48.328;7.932;2022-08-30T14:49:11;5.03;;;4.83;;
32082;SDS011;18597;48.328;7.932;2022-08-30T14:51:39;5.40;;;4.40;;
32082;SDS011;18597;48.328;7.932;2022-08-30T14:54:05;5.37;;;4.93;;
32082;SDS011;18597;48.328;7.932;2022-08-30T14:56:32;4.67;;;4.40;;
32082;SDS011;18597;48.328;7.932;2022-08-30T14:58:57;4.93;;;4.53;;
32082;SDS011;18597;48.328;7.932;2022-08-30T15:01:26;3.70;;;3.60;;
32082;SDS011;18597;48.328;7.932;2022-08-30T15:03:54;5.07;;;4.60;;
32082;SDS011;18597;48.328;7.932;2022-08-30T15:06:20;5.23;;;4.00;;
32082;SDS011;18597;48.328;7.932;2022-08-30T15:08:50;4.10;;;3.97;;
32082;SDS011;18597;48.328;7.932;2022-08-30T15:11:17;4.37;;;4.27;;
32082;SDS011;18597;48.328;7.932;2022-08-30T15:13:45;6.77;;;5.57;;
32082;SDS011;18597;48.328;7.932;2022-08-30T15:16:13;4.80;;;4.60;;
32082;SDS011;18597;48.328;7.932;2022-08-30T15:18:44;5.73;;;5.33;;
32082;SDS011;18597;48.328;7.932;2022-08-30T15:21:11;6.83;;;4.80;;
32082;SDS011;18597;48.328;7.932;2022-08-30T15:23:37;5.40;;;5.00;;
32082;SDS011;18597;48.328;7.932;2022-08-30T15:26:04;4.50;;;4.20;;
32082;SDS011;18597;48.328;7.932;2022-08-30T15:28:31;4.13;;;3.90;;
32082;SDS011;18597;48.328;7.932;2022-08-30T15:30:57;4.73;;;4.43;;
32082;SDS011;18597;48.328;7.932;2022-08-30T15:33:23;7.80;;;4.53;;
32082;SDS011;18597;48.328;7.932;2022-08-30T15:35:49;4.67;;;4.30;;
32082;SDS011;18597;48.328;7.932;2022-08-30T15:38:16;4.13;;;3.93;;
32082;SDS011;18597;48.328;7.932;2022-08-30T15:40:44;4.63;;;4.23;;
32082;SDS011;18597;48.328;7.932;2022-08-30T15:43:13;4.30;;;4.20;;
32082;SDS011;18597;48.328;7.932;2022-08-30T15:45:39;6.00;;;4.70;;
32082;SDS011;18597;48.328;7.932;2022-08-30T15:48:05;4.43;;;4.10;;
32082;SDS011;18597;48.328;7.932;2022-08-30T15:50:31;6.13;;;5.37;;
32082;SDS011;18597;48.328;7.932;2022-08-30T15:52:57;3.83;;;3.50;;
32082;SDS011;18597;48.328;7.932;2022-08-30T15:55:24;8.43;;;4.27;;
32082;SDS011;18597;48.328;7.932;2022-08-30T15:57:50;3.97;;;3.87;;
32082;SDS011;18597;48.328;7.932;2022-08-30T16:00:16;4.57;;;4.27;;